St Andrews, United Kingdom
Current Conditions -  °F | °C
As of 5:50 PM on Thursday 29 Jan 2015 (Local Time) from EGQL Reporting Station
Few Clouds Few Clouds  
Wind Chill: 26°   Ceiling: Unl
Heat Index: 32°   Visibility: 6mi
Dew Point: 27°   Wind: 7mph
Humidity: 80%   Direction: 270°W
Pressure: 28.7"   Gusts: NA
Location:  56.34°N, 2.8°W
Report Text: EGQL 291750Z AUTO 27006KT 9999 FEW170/// 00/M03 Q0972
Loading
Personal Weather Stations






























Interactive Weather Map New forecast layout! Learn more

10-Day Weather Forecast

Advertisements
Track Severe Weather on mobile